Time;durP1;ratioP1;P1;durP2;ratioP2;P2;SDS_P1;SDS_P2;PMS_P1;PMS_P2;Temp;Humidity;BMP_temperature;BMP_pressure;BME280_temperature;BME280_humidity;BME280_pressure;Samples;Min_cycle;Max_cycle;Signal;HPM_P1;HPM_P2
2021/08/19 00:01:48;;;;;;;9.52;7.03;;;;;;;;;;143743;675;46021;-53
2021/08/19 00:04:15;;;;;;;8.65;6.75;;;;;;;;;;143744;587;46010;-53
2021/08/19 00:06:42;;;;;;;7.87;6.97;;;;;;;;;;143746;605;46020;-53
2021/08/19 00:09:09;;;;;;;11.63;7.78;;;;;;;;;;143743;638;47021;-52
2021/08/19 00:11:36;;;;;;;12.35;7.53;;;;;;;;;;143741;709;46020;-52
2021/08/19 00:14:03;;;;;;;11.43;7.62;;;;;;;;;;143741;575;46010;-52
2021/08/19 00:16:30;;;;;;;10.60;7.37;;;;;;;;;;143747;587;45021;-53
2021/08/19 00:18:57;;;;;;;10.73;6.70;;;;;;;;;;143745;585;46023;-53
2021/08/19 00:21:25;;;;;;;9.90;7.10;;;;;;;;;;143743;568;46020;-53
2021/08/19 00:23:52;;;;;;;11.65;6.70;;;;;;;;;;143745;604;46010;-52
2021/08/19 00:26:19;;;;;;;8.50;6.60;;;;;;;;;;143747;602;45020;-53
2021/08/19 00:28:46;;;;;;;13.65;7.70;;;;;;;;;;143743;625;46022;-53
2021/08/19 00:31:13;;;;;;;11.93;7.70;;;;;;;;;;143743;571;46021;-53
2021/08/19 00:33:40;;;;;;;12.27;7.40;;;;;;;;;;143744;564;46010;-53
2021/08/19 00:36:07;;;;;;;9.23;6.65;;;;;;;;;;143747;612;45020;-52
2021/08/19 00:38:34;;;;;;;10.27;7.28;;;;;;;;;;143745;577;46021;-53
2021/08/19 00:41:03;;;;;;;9.85;7.45;;;;;;;;;;143743;583;46020;-52
2021/08/19 00:43:33;;;;;;;8.82;6.53;;;;;;;;;;143745;638;46010;-53
2021/08/19 00:46:00;;;;;;;10.63;6.30;;;;;;;;;;143748;581;45021;-53
2021/08/19 00:48:27;;;;;;;13.45;6.78;;;;;;;;;;143745;609;46020;-52
2021/08/19 00:50:54;;;;;;;9.90;6.82;;;;;;;;;;143740;591;46020;-52
2021/08/19 00:53:21;;;;;;;10.57;7.40;;;;;;;;;;143743;581;46010;-52
2021/08/19 00:55:50;;;;;;;11.07;6.62;;;;;;;;;;143745;670;46021;-52
2021/08/19 00:58:18;;;;;;;10.10;6.47;;;;;;;;;;143742;573;46022;-53
2021/08/19 01:00:46;;;;;;;8.38;7.15;;;;;;;;;;143738;585;46021;-52
2021/08/19 01:03:13;;;;;;;9.90;7.10;;;;;;;;;;143743;584;46010;-52
2021/08/19 01:05:40;;;;;;;13.10;7.45;;;;;;;;;;143745;635;45020;-52
2021/08/19 01:08:09;;;;;;;10.98;7.85;;;;;;;;;;143743;574;46022;-53
2021/08/19 01:10:36;;;;;;;11.27;6.80;;;;;;;;;;143739;593;46021;-53
2021/08/19 01:13:04;;;;;;;9.63;7.30;;;;;;;;;;143740;608;46010;-52
2021/08/19 01:15:31;;;;;;;10.48;7.35;;;;;;;;;;143744;582;46020;-52
2021/08/19 01:18:01;;;;;;;10.98;7.78;;;;;;;;;;143742;616;46020;-52
2021/08/19 01:20:36;;;;;;;10.55;7.90;;;;;;;;;;143739;597;47020;-52
2021/08/19 01:23:03;;;;;;;11.20;8.40;;;;;;;;;;143741;626;46011;-52
2021/08/19 01:25:30;;;;;;;13.60;7.75;;;;;;;;;;143745;587;46020;-52
2021/08/19 01:27:58;;;;;;;10.48;8.02;;;;;;;;;;143740;589;46012;-52
2021/08/19 01:30:26;;;;;;;13.60;8.30;;;;;;;;;;143738;599;46021;-52
2021/08/19 01:32:54;;;;;;;17.60;8.48;;;;;;;;;;143742;564;46010;-52
2021/08/19 01:35:28;;;;;;;12.77;8.20;;;;;;;;;;143745;577;46020;-52
2021/08/19 01:37:55;;;;;;;12.93;8.15;;;;;;;;;;143741;636;46022;-52
2021/08/19 01:40:22;;;;;;;13.98;8.20;;;;;;;;;;143741;698;46020;-52
2021/08/19 01:42:49;;;;;;;14.20;8.75;;;;;;;;;;143742;609;46010;-53
2021/08/19 01:45:18;;;;;;;13.15;8.10;;;;;;;;;;143745;600;46020;-52
2021/08/19 01:47:48;;;;;;;14.95;8.38;;;;;;;;;;143741;575;46023;-52
2021/08/19 01:50:16;;;;;;;14.55;8.20;;;;;;;;;;143737;586;46020;-52
2021/08/19 01:52:46;;;;;;;13.90;8.43;;;;;;;;;;143741;614;46010;-53
2021/08/19 01:55:13;;;;;;;17.67;8.05;;;;;;;;;;143747;564;45021;-52
2021/08/19 01:57:40;;;;;;;17.35;8.95;;;;;;;;;;143742;591;46020;-53
2021/08/19 02:00:09;;;;;;;17.00;8.75;;;;;;;;;;143740;564;46020;-51
2021/08/19 02:02:36;;;;;;;14.30;8.40;;;;;;;;;;143740;595;46010;-52
2021/08/19 02:05:03;;;;;;;16.80;8.63;;;;;;;;;;143746;573;46020;-52
2021/08/19 02:07:30;;;;;;;16.45;8.20;;;;;;;;;;143742;571;46022;-52
2021/08/19 02:09:57;;;;;;;15.63;8.60;;;;;;;;;;143739;693;46020;-52
2021/08/19 02:12:24;;;;;;;15.52;7.37;;;;;;;;;;143741;683;46010;-52
2021/08/19 02:14:51;;;;;;;18.58;8.30;;;;;;;;;;143744;583;45021;-52
2021/08/19 02:17:18;;;;;;;17.58;8.27;;;;;;;;;;143742;652;46023;-52
2021/08/19 02:19:45;;;;;;;13.93;8.07;;;;;;;;;;143739;579;46020;-53
2021/08/19 02:22:13;;;;;;;16.17;8.30;;;;;;;;;;143742;570;46011;-51
2021/08/19 02:24:40;;;;;;;16.27;8.35;;;;;;;;;;143745;631;46021;-52
2021/08/19 02:27:07;;;;;;;13.95;7.75;;;;;;;;;;143742;569;46022;-52
2021/08/19 02:29:34;;;;;;;12.57;8.32;;;;;;;;;;143739;611;46021;-52
2021/08/19 02:32:01;;;;;;;17.58;7.97;;;;;;;;;;143740;612;46010;-53
2021/08/19 02:34:28;;;;;;;13.23;8.57;;;;;;;;;;143745;571;45020;-52
2021/08/19 02:36:55;;;;;;;18.83;8.60;;;;;;;;;;143741;656;46022;-52
2021/08/19 02:39:23;;;;;;;15.32;8.35;;;;;;;;;;143739;661;46021;-52
2021/08/19 02:41:49;;;;;;;13.27;7.82;;;;;;;;;;143742;585;46010;-52
2021/08/19 02:44:16;;;;;;;17.60;8.25;;;;;;;;;;143743;610;45020;-51
2021/08/19 02:46:43;;;;;;;15.85;8.48;;;;;;;;;;143743;627;46023;-52
2021/08/19 02:49:11;;;;;;;14.80;8.25;;;;;;;;;;143739;565;46020;-52
2021/08/19 02:51:37;;;;;;;15.13;8.38;;;;;;;;;;143739;579;46913;-52
2021/08/19 02:54:04;;;;;;;21.23;8.52;;;;;;;;;;143744;578;46021;-52
2021/08/19 02:56:31;;;;;;;15.27;8.63;;;;;;;;;;143743;639;46022;-52
2021/08/19 02:58:58;;;;;;;16.48;7.78;;;;;;;;;;143741;566;46021;-53
2021/08/19 03:01:26;;;;;;;16.50;8.88;;;;;;;;;;143742;589;46010;-53
2021/08/19 03:03:53;;;;;;;12.93;8.30;;;;;;;;;;143743;587;45020;-52
2021/08/19 03:06:20;;;;;;;14.85;8.07;;;;;;;;;;143742;580;46021;-52
2021/08/19 03:08:47;;;;;;;13.40;8.10;;;;;;;;;;143741;569;46020;-53
2021/08/19 03:11:14;;;;;;;13.45;7.62;;;;;;;;;;143741;574;46010;-52
2021/08/19 03:13:41;;;;;;;13.43;8.85;;;;;;;;;;143745;584;45020;-52
2021/08/19 03:16:08;;;;;;;14.50;8.73;;;;;;;;;;143742;575;46023;-52
2021/08/19 03:18:35;;;;;;;13.95;8.25;;;;;;;;;;143740;587;46020;-52
2021/08/19 03:21:03;;;;;;;12.23;7.75;;;;;;;;;;143742;603;46010;-53
2021/08/19 03:23:30;;;;;;;11.90;7.78;;;;;;;;;;143745;615;46021;-53
2021/08/19 03:25:57;;;;;;;12.10;8.63;;;;;;;;;;143741;645;46022;-52
2021/08/19 03:28:24;;;;;;;12.90;8.40;;;;;;;;;;143739;596;46020;-52
2021/08/19 03:30:53;;;;;;;12.88;7.87;;;;;;;;;;143743;597;46010;-52
2021/08/19 03:33:21;;;;;;;19.65;8.68;;;;;;;;;;143745;661;45020;-53
2021/08/19 03:35:48;;;;;;;14.48;8.52;;;;;;;;;;143742;611;46020;-52
2021/08/19 03:38:15;;;;;;;13.10;8.35;;;;;;;;;;143741;610;46021;-52
2021/08/19 03:40:42;;;;;;;12.88;8.00;;;;;;;;;;143743;680;46010;-53
2021/08/19 03:43:10;;;;;;;10.85;8.48;;;;;;;;;;143745;624;45020;-53
2021/08/19 03:45:37;;;;;;;11.05;7.82;;;;;;;;;;143743;583;46021;-53
2021/08/19 03:48:05;;;;;;;11.75;7.85;;;;;;;;;;143740;564;46020;-53
2021/08/19 03:50:33;;;;;;;16.30;8.20;;;;;;;;;;143742;581;46010;-53
2021/08/19 03:53:00;;;;;;;16.27;8.65;;;;;;;;;;143745;571;45021;-52
2021/08/19 03:55:27;;;;;;;16.20;7.95;;;;;;;;;;143741;569;46022;-52
2021/08/19 03:57:55;;;;;;;14.68;8.48;;;;;;;;;;143740;613;46020;-52
2021/08/19 04:00:22;;;;;;;20.35;8.65;;;;;;;;;;143741;610;46010;-53
2021/08/19 04:02:49;;;;;;;12.30;8.52;;;;;;;;;;143745;582;46020;-52
2021/08/19 04:05:16;;;;;;;15.68;8.38;;;;;;;;;;143741;617;46022;-52
2021/08/19 04:07:43;;;;;;;16.87;8.77;;;;;;;;;;143739;671;46021;-52
2021/08/19 04:10:11;;;;;;;15.13;7.97;;;;;;;;;;143742;577;46010;-53
2021/08/19 04:12:38;;;;;;;13.80;8.32;;;;;;;;;;143744;566;46020;-53
2021/08/19 04:15:06;;;;;;;13.68;8.48;;;;;;;;;;143742;564;46021;-52
2021/08/19 04:17:34;;;;;;;15.48;8.57;;;;;;;;;;143739;584;46020;-52
2021/08/19 04:20:01;;;;;;;14.85;8.55;;;;;;;;;;143742;636;46010;-52
2021/08/19 04:22:28;;;;;;;20.15;8.23;;;;;;;;;;143746;567;45021;-53
2021/08/19 04:24:55;;;;;;;18.12;7.87;;;;;;;;;;143742;593;46020;-52
2021/08/19 04:27:22;;;;;;;12.70;7.85;;;;;;;;;;143741;578;46020;-52
2021/08/19 04:29:49;;;;;;;13.15;8.13;;;;;;;;;;143743;594;46010;-53
2021/08/19 04:32:17;;;;;;;12.13;8.50;;;;;;;;;;143746;596;45020;-52
2021/08/19 04:34:44;;;;;;;13.30;7.87;;;;;;;;;;143743;649;46020;-52
2021/08/19 04:37:11;;;;;;;13.62;8.00;;;;;;;;;;143738;564;46021;-52
2021/08/19 04:39:38;;;;;;;18.92;8.13;;;;;;;;;;143743;573;46010;-53
2021/08/19 04:42:05;;;;;;;17.37;8.15;;;;;;;;;;143745;591;45020;-52
2021/08/19 04:44:32;;;;;;;14.60;7.80;;;;;;;;;;143742;569;46023;-52
2021/08/19 04:46:59;;;;;;;14.80;7.85;;;;;;;;;;143741;731;46020;-52
2021/08/19 04:49:26;;;;;;;14.90;8.35;;;;;;;;;;143743;576;46010;-52
2021/08/19 04:51:54;;;;;;;26.30;8.23;;;;;;;;;;143745;574;45021;-52
2021/08/19 04:54:21;;;;;;;12.10;7.70;;;;;;;;;;143741;586;47020;-52
2021/08/19 04:56:48;;;;;;;16.50;7.70;;;;;;;;;;143739;585;46919;-52
2021/08/19 04:59:15;;;;;;;15.20;8.40;;;;;;;;;;143743;606;46010;-52
2021/08/19 05:01:42;;;;;;;19.40;8.30;;;;;;;;;;143744;691;46020;-52
2021/08/19 05:04:10;;;;;;;13.90;8.02;;;;;;;;;;143743;603;46020;-52
2021/08/19 05:06:37;;;;;;;10.45;7.32;;;;;;;;;;143741;632;46021;-52
2021/08/19 05:09:06;;;;;;;12.82;7.60;;;;;;;;;;143743;593;46010;-52
2021/08/19 05:11:33;;;;;;;17.50;7.43;;;;;;;;;;143745;589;46020;-52
2021/08/19 05:14:00;;;;;;;19.08;8.02;;;;;;;;;;143742;574;46021;-52
2021/08/19 05:16:28;;;;;;;14.57;7.60;;;;;;;;;;143739;635;46020;-52
2021/08/19 05:18:55;;;;;;;16.62;8.18;;;;;;;;;;143741;576;46010;-51
2021/08/19 05:21:23;;;;;;;16.30;8.13;;;;;;;;;;143745;608;46020;-52
2021/08/19 05:23:50;;;;;;;11.45;7.57;;;;;;;;;;143741;566;46023;-52
2021/08/19 05:26:18;;;;;;;11.93;6.82;;;;;;;;;;143740;608;46020;-52
2021/08/19 05:28:46;;;;;;;10.27;6.85;;;;;;;;;;143740;564;46011;-52
2021/08/19 05:31:13;;;;;;;17.15;7.30;;;;;;;;;;143744;595;46020;-52
2021/08/19 05:33:43;;;;;;;16.33;7.60;;;;;;;;;;143743;605;46022;-52
2021/08/19 05:36:10;;;;;;;12.75;7.00;;;;;;;;;;143740;750;46021;-51
2021/08/19 05:38:37;;;;;;;14.20;7.37;;;;;;;;;;143741;589;46010;-51
2021/08/19 05:41:05;;;;;;;19.40;7.50;;;;;;;;;;143745;565;45020;-51
2021/08/19 05:43:32;;;;;;;15.23;7.45;;;;;;;;;;143742;566;46022;-52
2021/08/19 05:45:59;;;;;;;17.08;7.97;;;;;;;;;;143739;577;46020;-51
2021/08/19 05:48:25;;;;;;;12.45;7.35;;;;;;;;;;143739;679;46010;-51
2021/08/19 05:50:52;;;;;;;15.70;7.30;;;;;;;;;;143743;592;45021;-51
2021/08/19 05:53:20;;;;;;;15.35;7.60;;;;;;;;;;143741;683;46023;-51
2021/08/19 05:55:47;;;;;;;17.23;7.43;;;;;;;;;;143739;740;46020;-51
2021/08/19 05:58:13;;;;;;;12.00;6.82;;;;;;;;;;143739;581;46011;-51
2021/08/19 06:00:45;;;;;;;10.80;6.80;;;;;;;;;;143742;611;46010;-52
2021/08/19 06:03:12;;;;;;;10.98;7.40;;;;;;;;;;143741;579;46022;-51
2021/08/19 06:05:39;;;;;;;13.32;7.32;;;;;;;;;;143739;681;46021;-52
2021/08/19 06:08:06;;;;;;;10.02;6.70;;;;;;;;;;143742;593;46010;-51
2021/08/19 06:10:33;;;;;;;15.40;7.37;;;;;;;;;;143744;598;45030;-52
2021/08/19 06:13:00;;;;;;;15.13;7.03;;;;;;;;;;143742;724;46022;-52
2021/08/19 06:15:27;;;;;;;12.25;6.37;;;;;;;;;;143739;569;46020;-52
2021/08/19 06:17:54;;;;;;;13.65;7.45;;;;;;;;;;143741;625;46010;-52
2021/08/19 06:20:21;;;;;;;13.23;6.55;;;;;;;;;;143744;651;46020;-52
2021/08/19 06:22:48;;;;;;;10.30;6.57;;;;;;;;;;143742;570;46020;-52
2021/08/19 06:25:16;;;;;;;14.50;7.32;;;;;;;;;;143740;575;46020;-52
2021/08/19 06:27:42;;;;;;;12.40;6.07;;;;;;;;;;143739;569;46020;-52
2021/08/19 06:30:10;;;;;;;12.60;7.00;;;;;;;;;;143745;685;45020;-52
2021/08/19 06:32:38;;;;;;;11.77;6.93;;;;;;;;;;143741;641;46022;-51
2021/08/19 06:35:05;;;;;;;11.75;6.32;;;;;;;;;;143739;579;46021;-53
2021/08/19 06:37:33;;;;;;;13.07;6.70;;;;;;;;;;143741;585;46010;-52
2021/08/19 06:40:00;;;;;;;13.52;7.43;;;;;;;;;;143744;645;46020;-51
2021/08/19 06:42:27;;;;;;;12.20;6.72;;;;;;;;;;143743;580;46022;-52
2021/08/19 06:44:54;;;;;;;11.05;6.75;;;;;;;;;;143739;578;46020;-51
2021/08/19 06:47:21;;;;;;;17.50;7.15;;;;;;;;;;143741;665;46010;-52
2021/08/19 06:49:48;;;;;;;15.10;6.87;;;;;;;;;;143745;657;45021;-52
2021/08/19 06:52:15;;;;;;;13.98;6.85;;;;;;;;;;143741;604;46023;-52
2021/08/19 06:54:42;;;;;;;15.30;6.47;;;;;;;;;;143741;576;46020;-52
2021/08/19 06:57:09;;;;;;;13.82;7.78;;;;;;;;;;143740;620;46010;-51
2021/08/19 06:59:36;;;;;;;13.55;6.40;;;;;;;;;;143745;580;45020;-52
2021/08/19 07:02:03;;;;;;;18.10;7.18;;;;;;;;;;143741;578;47020;-52
2021/08/19 07:04:30;;;;;;;10.60;7.05;;;;;;;;;;143740;672;46021;-52
2021/08/19 07:06:57;;;;;;;14.35;7.37;;;;;;;;;;143741;591;46010;-52
2021/08/19 07:09:24;;;;;;;11.40;6.32;;;;;;;;;;143746;646;45020;-52
2021/08/19 07:11:51;;;;;;;12.68;6.35;;;;;;;;;;143743;660;46022;-52
2021/08/19 07:14:18;;;;;;;9.43;6.15;;;;;;;;;;143741;644;46020;-52
2021/08/19 07:16:45;;;;;;;15.60;6.80;;;;;;;;;;143741;610;46010;-52
2021/08/19 07:19:12;;;;;;;14.60;6.60;;;;;;;;;;143746;564;45021;-53
2021/08/19 07:21:40;;;;;;;12.90;6.60;;;;;;;;;;143744;607;46023;-52
2021/08/19 07:24:07;;;;;;;11.12;6.35;;;;;;;;;;143742;678;46020;-52
2021/08/19 07:26:34;;;;;;;10.43;6.47;;;;;;;;;;143743;583;46010;-51
2021/08/19 07:29:02;;;;;;;16.65;6.82;;;;;;;;;;143745;574;46021;-52
2021/08/19 07:31:29;;;;;;;12.65;7.22;;;;;;;;;;143742;599;46022;-52
2021/08/19 07:33:56;;;;;;;12.65;6.60;;;;;;;;;;143740;600;46020;-52
2021/08/19 07:36:23;;;;;;;12.57;6.70;;;;;;;;;;143743;573;46010;-52
2021/08/19 07:38:50;;;;;;;15.05;7.15;;;;;;;;;;143746;595;46020;-52
2021/08/19 07:41:17;;;;;;;20.77;6.87;;;;;;;;;;143743;600;46022;-52
2021/08/19 07:43:45;;;;;;;25.45;7.05;;;;;;;;;;143738;571;46021;-52
2021/08/19 07:46:12;;;;;;;13.50;6.85;;;;;;;;;;143740;592;46010;-52
2021/08/19 07:48:40;;;;;;;12.18;6.62;;;;;;;;;;143744;583;45021;-52
2021/08/19 07:51:07;;;;;;;18.02;7.37;;;;;;;;;;143742;564;46041;-52
2021/08/19 07:53:34;;;;;;;14.30;6.85;;;;;;;;;;143740;651;46020;-51
2021/08/19 07:56:01;;;;;;;12.15;6.43;;;;;;;;;;143742;690;46011;-52
2021/08/19 07:58:28;;;;;;;12.57;6.87;;;;;;;;;;143745;570;45021;-52
2021/08/19 08:00:56;;;;;;;12.00;6.47;;;;;;;;;;143741;582;46044;-51
2021/08/19 08:03:23;;;;;;;11.23;6.93;;;;;;;;;;143742;580;46021;-52
2021/08/19 08:05:50;;;;;;;15.40;6.47;;;;;;;;;;143741;570;46010;-52
2021/08/19 08:08:17;;;;;;;13.70;6.78;;;;;;;;;;143746;599;45020;-52
2021/08/19 08:10:44;;;;;;;10.23;6.72;;;;;;;;;;143744;571;46022;-52
2021/08/19 08:13:12;;;;;;;13.62;7.00;;;;;;;;;;143742;623;46020;-51
2021/08/19 08:15:40;;;;;;;10.80;6.47;;;;;;;;;;143743;604;46010;-52
2021/08/19 08:18:13;;;;;;;11.20;6.45;;;;;;;;;;143746;578;45020;-51
2021/08/19 08:20:40;;;;;;;13.73;7.07;;;;;;;;;;143739;564;49020;-52
2021/08/19 08:23:07;;;;;;;14.63;6.87;;;;;;;;;;143741;586;46020;-52
2021/08/19 08:25:35;;;;;;;11.55;6.53;;;;;;;;;;143744;585;46010;-52
2021/08/19 08:28:05;;;;;;;13.73;6.70;;;;;;;;;;143745;699;46021;-52
2021/08/19 08:30:33;;;;;;;11.77;6.70;;;;;;;;;;143743;654;46020;-52
2021/08/19 08:33:00;;;;;;;14.50;7.57;;;;;;;;;;143741;642;46020;-51
2021/08/19 08:35:30;;;;;;;11.80;7.10;;;;;;;;;;143743;658;46010;-51
2021/08/19 08:37:57;;;;;;;10.30;6.50;;;;;;;;;;143746;635;46020;-52
2021/08/19 08:40:26;;;;;;;11.75;6.43;;;;;;;;;;143744;627;46020;-51
2021/08/19 08:42:53;;;;;;;10.23;6.40;;;;;;;;;;143740;586;46021;-52
2021/08/19 08:45:20;;;;;;;12.63;6.65;;;;;;;;;;143744;593;46010;-51
2021/08/19 08:47:48;;;;;;;10.35;6.60;;;;;;;;;;143746;605;45020;-51
2021/08/19 08:50:16;;;;;;;11.57;6.80;;;;;;;;;;143743;583;46023;-53
2021/08/19 08:52:43;;;;;;;10.50;6.07;;;;;;;;;;143743;618;46020;-51
2021/08/19 08:55:11;;;;;;;14.50;7.18;;;;;;;;;;143743;564;46010;-51
2021/08/19 08:57:38;;;;;;;12.48;6.85;;;;;;;;;;143748;575;45021;-52
2021/08/19 09:00:07;;;;;;;12.30;6.97;;;;;;;;;;143742;627;46049;-52
2021/08/19 09:02:35;;;;;;;12.85;7.20;;;;;;;;;;143740;599;46919;-51
2021/08/19 09:05:37;;;;;;;13.73;6.72;;;;;;;;;;143743;578;46010;-52
2021/08/19 09:08:04;;;;;;;14.65;7.20;;;;;;;;;;143747;592;46020;-52
2021/08/19 09:10:33;;;;;;;11.52;6.78;;;;;;;;;;143744;669;46021;-51
2021/08/19 09:13:08;;;;;;;11.90;7.03;;;;;;;;;;143741;601;46020;-52
2021/08/19 09:15:35;;;;;;;7.93;5.93;;;;;;;;;;143743;577;46010;-52
2021/08/19 09:18:03;;;;;;;10.07;6.60;;;;;;;;;;143747;580;46020;-51
2021/08/19 09:20:48;;;;;;;13.25;7.50;;;;;;;;;;143744;611;46045;-52
2021/08/19 09:23:16;;;;;;;18.25;7.00;;;;;;;;;;143742;571;46020;-51
2021/08/19 09:25:45;;;;;;;11.65;7.43;;;;;;;;;;143744;611;46011;-52
2021/08/19 09:28:26;;;;;;;10.65;6.95;;;;;;;;;;143747;655;46021;-51
2021/08/19 09:30:58;;;;;;;10.52;6.40;;;;;;;;;;143743;573;46022;-51
2021/08/19 09:33:31;;;;;;;12.27;7.25;;;;;;;;;;143741;604;46021;-51
2021/08/19 09:36:02;;;;;;;12.48;7.05;;;;;;;;;;143742;610;46010;-52
2021/08/19 09:38:43;;;;;;;14.50;6.47;;;;;;;;;;143746;566;46020;-51
2021/08/19 09:41:17;;;;;;;11.70;7.05;;;;;;;;;;143744;582;46022;-52
2021/08/19 09:43:48;;;;;;;10.70;7.45;;;;;;;;;;143743;593;46020;-52
2021/08/19 09:46:18;;;;;;;13.07;6.65;;;;;;;;;;143743;670;46010;-52
2021/08/19 09:48:46;;;;;;;10.15;7.50;;;;;;;;;;143747;629;46020;-52
2021/08/19 09:51:15;;;;;;;12.27;6.72;;;;;;;;;;143745;582;46020;-53
2021/08/19 09:53:43;;;;;;;10.50;6.72;;;;;;;;;;143741;603;46020;-53
2021/08/19 09:56:12;;;;;;;12.02;7.05;;;;;;;;;;143742;583;46010;-54
2021/08/19 09:58:40;;;;;;;10.48;6.62;;;;;;;;;;143747;598;46020;-53
2021/08/19 10:01:08;;;;;;;11.02;6.25;;;;;;;;;;143744;576;46022;-53
2021/08/19 10:03:35;;;;;;;10.20;6.47;;;;;;;;;;143741;620;46021;-53
2021/08/19 10:06:03;;;;;;;14.73;6.32;;;;;;;;;;143742;572;46010;-53
2021/08/19 10:08:30;;;;;;;12.77;6.37;;;;;;;;;;143748;672;45020;-52
2021/08/19 10:11:00;;;;;;;11.75;6.68;;;;;;;;;;143743;592;47021;-53
2021/08/19 10:13:28;;;;;;;11.23;6.68;;;;;;;;;;143743;824;46020;-53
2021/08/19 10:15:55;;;;;;;9.88;6.68;;;;;;;;;;143743;654;46010;-53
2021/08/19 10:18:29;;;;;;;10.20;6.60;;;;;;;;;;143746;588;46020;-52
2021/08/19 10:21:25;;;;;;;13.52;6.82;;;;;;;;;;143743;659;45023;-52
2021/08/19 10:23:53;;;;;;;10.73;6.82;;;;;;;;;;143742;611;46020;-53
2021/08/19 10:26:20;;;;;;;13.88;6.50;;;;;;;;;;143744;565;46010;-52
2021/08/19 10:28:58;;;;;;;14.55;7.93;;;;;;;;;;143748;589;45020;-53
2021/08/19 10:31:43;;;;;;;13.23;7.53;;;;;;;;;;143743;569;47020;-52
2021/08/19 10:34:12;;;;;;;12.57;7.57;;;;;;;;;;143740;612;46021;-53
2021/08/19 10:36:49;;;;;;;10.50;6.95;;;;;;;;;;143745;623;46010;-52
2021/08/19 10:39:41;;;;;;;9.70;7.10;;;;;;;;;;143747;572;46020;-53
2021/08/19 10:42:09;;;;;;;9.95;7.25;;;;;;;;;;143745;609;46021;-53
2021/08/19 10:44:49;;;;;;;13.98;7.25;;;;;;;;;;143740;591;46020;-53
2021/08/19 10:47:36;;;;;;;11.75;7.20;;;;;;;;;;143744;581;46010;-53
2021/08/19 10:50:44;;;;;;;11.38;7.60;;;;;;;;;;143748;626;46021;-53
2021/08/19 10:53:22;;;;;;;11.73;7.00;;;;;;;;;;143742;620;47022;-53
2021/08/19 10:55:54;;;;;;;12.43;7.18;;;;;;;;;;143742;590;46021;-53
2021/08/19 10:58:41;;;;;;;10.20;7.40;;;;;;;;;;143742;637;46010;-53
2021/08/19 11:01:49;;;;;;;9.75;6.95;;;;;;;;;;143747;636;46020;-53
2021/08/19 11:04:39;;;;;;;11.57;7.20;;;;;;;;;;143743;640;46023;-53
2021/08/19 11:07:07;;;;;;;13.73;6.82;;;;;;;;;;143744;593;45916;-54
2021/08/19 11:09:34;;;;;;;12.37;7.07;;;;;;;;;;143742;583;46010;-53
2021/08/19 11:12:08;;;;;;;11.65;7.43;;;;;;;;;;143746;612;45021;-53
2021/08/19 11:14:35;;;;;;;10.55;6.93;;;;;;;;;;143744;571;46020;-53
2021/08/19 11:17:02;;;;;;;9.77;6.97;;;;;;;;;;143740;615;46022;-54
2021/08/19 11:19:31;;;;;;;14.32;7.82;;;;;;;;;;143743;580;46010;-53
2021/08/19 11:22:03;;;;;;;10.82;6.75;;;;;;;;;;143746;610;45020;-54
2021/08/19 11:24:34;;;;;;;11.07;7.87;;;;;;;;;;143743;619;46022;-53
2021/08/19 11:27:09;;;;;;;9.15;7.40;;;;;;;;;;143742;640;46021;-53
2021/08/19 11:29:44;;;;;;;13.00;7.85;;;;;;;;;;143742;605;46010;-53
2021/08/19 11:32:13;;;;;;;11.75;7.60;;;;;;;;;;143747;593;46020;-53
2021/08/19 11:34:48;;;;;;;13.73;8.00;;;;;;;;;;143743;569;46023;-53
2021/08/19 11:37:28;;;;;;;11.80;7.18;;;;;;;;;;143741;639;46020;-53
2021/08/19 11:39:56;;;;;;;9.88;6.85;;;;;;;;;;143743;607;46010;-54
2021/08/19 11:42:33;;;;;;;11.18;6.95;;;;;;;;;;143746;603;46021;-53
2021/08/19 11:45:20;;;;;;;15.60;7.25;;;;;;;;;;143743;677;46047;-53
2021/08/19 11:47:50;;;;;;;9.50;7.00;;;;;;;;;;143740;584;46021;-53
2021/08/19 11:50:24;;;;;;;11.85;6.90;;;;;;;;;;143743;593;46010;-53
2021/08/19 11:52:59;;;;;;;10.93;7.55;;;;;;;;;;143745;641;46020;-54
2021/08/19 11:55:30;;;;;;;10.50;7.35;;;;;;;;;;143744;615;46022;-53
2021/08/19 11:58:22;;;;;;;8.52;7.00;;;;;;;;;;143744;565;46020;-53
2021/08/19 12:01:09;;;;;;;12.37;7.32;;;;;;;;;;143745;600;46010;-53
2021/08/19 12:03:44;;;;;;;12.27;7.50;;;;;;;;;;143745;637;47021;-54
2021/08/19 12:06:17;;;;;;;8.50;7.05;;;;;;;;;;143742;650;47022;-53
2021/08/19 12:08:51;;;;;;;8.80;7.10;;;;;;;;;;143742;679;46020;-54
2021/08/19 12:11:31;;;;;;;12.63;7.53;;;;;;;;;;143738;582;46021;-53
2021/08/19 12:14:00;;;;;;;11.88;7.80;;;;;;;;;;143748;569;45020;-53
2021/08/19 12:16:30;;;;;;;10.43;6.95;;;;;;;;;;143742;627;46022;-54
2021/08/19 12:19:10;;;;;;;15.32;7.62;;;;;;;;;;143743;597;46020;-53
2021/08/19 12:21:42;;;;;;;17.27;7.62;;;;;;;;;;143742;575;46010;-53
2021/08/19 12:24:19;;;;;;;9.10;7.68;;;;;;;;;;143747;635;46020;-54
2021/08/19 12:27:16;;;;;;;8.98;7.12;;;;;;;;;;143743;622;46023;-54
2021/08/19 12:29:56;;;;;;;9.32;6.93;;;;;;;;;;143741;607;46020;-53
2021/08/19 12:32:34;;;;;;;10.60;6.53;;;;;;;;;;143744;671;46011;-53
2021/08/19 12:35:10;;;;;;;11.82;7.45;;;;;;;;;;143746;579;45020;-54
2021/08/19 12:37:40;;;;;;;10.57;7.32;;;;;;;;;;143744;594;46022;-53
2021/08/19 12:40:29;;;;;;;15.23;7.65;;;;;;;;;;143743;594;46021;-54
2021/08/19 12:43:07;;;;;;;12.70;7.68;;;;;;;;;;143744;565;46010;-53
2021/08/19 12:45:35;;;;;;;12.25;7.85;;;;;;;;;;143746;578;46018;-53
2021/08/19 12:48:06;;;;;;;15.95;7.75;;;;;;;;;;143744;623;46021;-53
2021/08/19 12:50:36;;;;;;;12.27;7.82;;;;;;;;;;143741;607;46020;-53
2021/08/19 12:53:14;;;;;;;13.27;7.45;;;;;;;;;;143744;627;46010;-53
2021/08/19 12:55:42;;;;;;;10.93;7.53;;;;;;;;;;143748;579;46021;-52
2021/08/19 12:58:08;;;;;;;9.57;7.55;;;;;;;;;;143742;595;48022;-52
2021/08/19 13:00:37;;;;;;;10.77;7.57;;;;;;;;;;143743;660;46020;-53
2021/08/19 13:03:05;;;;;;;9.57;8.15;;;;;;;;;;143743;642;46010;-52
2021/08/19 13:05:34;;;;;;;10.75;7.75;;;;;;;;;;143747;585;45020;-53
2021/08/19 13:08:04;;;;;;;10.00;7.95;;;;;;;;;;143745;565;46022;-52
2021/08/19 13:10:31;;;;;;;12.05;7.40;;;;;;;;;;143741;678;46021;-53
2021/08/19 13:12:58;;;;;;;11.02;8.40;;;;;;;;;;143742;795;46010;-52
2021/08/19 13:15:25;;;;;;;9.82;7.82;;;;;;;;;;143747;673;46020;-53
2021/08/19 13:17:52;;;;;;;9.90;8.10;;;;;;;;;;143744;623;46021;-52
2021/08/19 13:20:20;;;;;;;12.50;8.68;;;;;;;;;;143740;592;46020;-52
2021/08/19 13:22:48;;;;;;;13.07;8.18;;;;;;;;;;143743;591;46010;-52
2021/08/19 13:25:15;;;;;;;11.38;7.50;;;;;;;;;;143745;579;46021;-52
2021/08/19 13:27:42;;;;;;;11.60;7.75;;;;;;;;;;143742;626;46020;-52
2021/08/19 13:30:10;;;;;;;13.68;8.77;;;;;;;;;;143738;656;46020;-52
2021/08/19 13:32:37;;;;;;;12.13;8.10;;;;;;;;;;143741;623;46011;-52
2021/08/19 13:35:04;;;;;;;14.65;8.10;;;;;;;;;;143744;660;46020;-52
2021/08/19 13:37:32;;;;;;;11.60;8.18;;;;;;;;;;143741;565;46022;-52
2021/08/19 13:39:59;;;;;;;12.68;8.63;;;;;;;;;;143740;635;46021;-52
2021/08/19 13:42:26;;;;;;;10.55;8.48;;;;;;;;;;143742;606;46010;-52
2021/08/19 13:44:53;;;;;;;12.70;8.30;;;;;;;;;;143745;578;46020;-52
2021/08/19 13:47:21;;;;;;;16.00;8.43;;;;;;;;;;143743;596;46022;-52
2021/08/19 13:49:48;;;;;;;11.12;8.60;;;;;;;;;;143740;575;46020;-52
2021/08/19 13:52:15;;;;;;;12.00;8.02;;;;;;;;;;143741;586;46010;-52
2021/08/19 13:54:41;;;;;;;11.90;8.55;;;;;;;;;;143747;594;45021;-52
2021/08/19 13:57:08;;;;;;;13.38;8.00;;;;;;;;;;143742;606;46020;-52
2021/08/19 13:59:35;;;;;;;9.77;7.87;;;;;;;;;;143739;613;46020;-52
2021/08/19 14:02:04;;;;;;;12.80;8.18;;;;;;;;;;143740;574;46011;-53
2021/08/19 14:04:31;;;;;;;12.73;8.40;;;;;;;;;;143744;618;45021;-53
2021/08/19 14:06:59;;;;;;;10.25;8.48;;;;;;;;;;143742;564;46022;-53
2021/08/19 14:09:26;;;;;;;14.63;9.00;;;;;;;;;;143740;576;46021;-52
2021/08/19 14:11:53;;;;;;;12.82;8.70;;;;;;;;;;143741;573;46010;-52
2021/08/19 14:14:20;;;;;;;11.12;8.55;;;;;;;;;;143746;571;45020;-52
2021/08/19 14:16:47;;;;;;;13.32;8.68;;;;;;;;;;143741;574;46021;-53
2021/08/19 14:19:14;;;;;;;12.07;8.93;;;;;;;;;;143738;579;46020;-53
2021/08/19 14:21:41;;;;;;;13.62;8.70;;;;;;;;;;143743;569;46010;-52
2021/08/19 14:24:08;;;;;;;17.27;8.77;;;;;;;;;;143744;590;45021;-52
2021/08/19 14:26:35;;;;;;;12.30;9.13;;;;;;;;;;143742;604;46023;-52
2021/08/19 14:29:02;;;;;;;14.85;9.20;;;;;;;;;;143741;565;46020;-53
2021/08/19 14:31:30;;;;;;;15.25;9.52;;;;;;;;;;143742;594;46010;-53
2021/08/19 14:33:57;;;;;;;13.57;9.73;;;;;;;;;;143744;594;45021;-52
2021/08/19 14:36:24;;;;;;;12.15;9.15;;;;;;;;;;143741;612;46020;-53
2021/08/19 14:38:51;;;;;;;15.20;9.48;;;;;;;;;;143741;585;46021;-52
2021/08/19 14:41:18;;;;;;;12.40;9.30;;;;;;;;;;143743;621;46010;-53
2021/08/19 14:43:45;;;;;;;17.83;9.70;;;;;;;;;;143744;587;45020;-52